Time;durP1;ratioP1;P1;durP2;ratioP2;P2;SDS_P1;SDS_P2;PMS_P1;PMS_P2;Temp;Humidity;BMP_temperature;BMP_pressure;BME280_temperature;BME280_humidity;BME280_pressure;Samples;Min_cycle;Max_cycle;Signal;HPM_P1;HPM_P2
2021/09/21 00:02:11;;;;;;;2.58;1.13;;;;;;;20.30;42.59;101006.91;5106522;28;20126;-63
2021/09/21 00:04:38;;;;;;;3.05;1.25;;;;;;;20.31;42.66;101002.09;5113339;28;20147;-63
2021/09/21 00:07:04;;;;;;;2.92;1.08;;;;;;;20.32;42.50;101006.59;5110679;28;20067;-63
2021/09/21 00:09:31;;;;;;;2.35;1.30;;;;;;;20.23;42.79;101000.09;5112275;28;20079;-62
2021/09/21 00:11:58;;;;;;;5.82;2.85;;;;;;;20.19;42.40;100993.44;5109791;28;20068;-62
2021/09/21 00:14:25;;;;;;;2.20;1.23;;;;;;;20.29;42.25;100998.75;5113134;28;20547;-64
2021/09/21 00:16:52;;;;;;;1.50;0.90;;;;;;;20.33;41.99;100997.75;5107146;28;20093;-64
2021/09/21 00:19:19;;;;;;;1.58;0.90;;;;;;;20.38;41.96;101002.44;5090840;28;20127;-68
2021/09/21 00:21:46;;;;;;;2.20;0.80;;;;;;;20.47;41.75;101010.91;5106198;28;20082;-73
2021/09/21 00:24:13;;;;;;;2.28;0.63;;;;;;;20.51;41.54;101003.41;5100245;27;20039;-60
2021/09/21 00:26:40;;;;;;;1.40;0.60;;;;;;;20.51;41.63;101001.44;5084667;28;20395;-60
2021/09/21 00:29:08;;;;;;;0.73;0.57;;;;;;;20.55;41.37;100996.75;5108121;28;20170;-62
2021/09/21 00:31:38;;;;;;;1.88;0.70;;;;;;;20.61;41.31;100999.38;5100004;28;20245;-63
2021/09/21 00:34:12;;;;;;;2.85;0.80;;;;;;;20.64;41.14;100993.03;5093217;28;20579;-63
2021/09/21 00:36:41;;;;;;;1.90;0.60;;;;;;;20.72;41.34;101012.06;5098986;28;20115;-61
2021/09/21 00:39:11;;;;;;;2.65;0.77;;;;;;;20.70;41.17;100995.38;5097778;28;20135;-63
2021/09/21 00:41:39;;;;;;;0.55;0.50;;;;;;;20.73;41.25;101008.06;5093072;28;20048;-62
2021/09/21 00:44:08;;;;;;;3.88;0.90;;;;;;;20.62;41.16;100995.41;5092550;28;20123;-61
2021/09/21 00:46:35;;;;;;;2.38;0.63;;;;;;;20.65;41.11;101008.88;5092336;28;20055;-61
2021/09/21 00:49:03;;;;;;;0.98;0.47;;;;;;;20.62;41.21;101013.25;5095036;28;20500;-61
2021/09/21 00:51:30;;;;;;;1.90;0.70;;;;;;;20.55;41.15;101016.59;5106420;28;20127;-61
2021/09/21 00:53:57;;;;;;;2.80;0.80;;;;;;;20.53;41.24;101016.09;5102459;28;20123;-61
2021/09/21 00:56:24;;;;;;;0.85;0.43;;;;;;;20.48;41.04;101004.91;5110242;28;20122;-60
2021/09/21 00:58:51;;;;;;;1.08;0.82;;;;;;;20.42;41.12;100991.25;5097892;28;20140;-59
2021/09/21 01:01:18;;;;;;;1.65;0.65;;;;;;;20.41;41.04;100998.06;5107853;28;20130;-60
2021/09/21 01:03:45;;;;;;;1.63;1.20;;;;;;;20.50;41.11;101010.22;5112277;28;20051;-59
2021/09/21 01:06:12;;;;;;;0.40;0.40;;;;;;;20.47;41.50;101000.38;5109870;28;20126;-59
2021/09/21 01:08:41;;;;;;;1.00;0.55;;;;;;;20.50;41.35;101007.41;5110321;28;20067;-59
2021/09/21 01:11:12;;;;;;;3.08;0.80;;;;;;;20.51;41.05;101006.25;5091885;28;20044;-59
2021/09/21 01:13:40;;;;;;;3.20;0.70;;;;;;;20.46;41.38;101007.25;5099843;28;20040;-60
2021/09/21 01:16:08;;;;;;;2.78;0.73;;;;;;;20.46;41.35;101012.09;5078556;28;20264;-60
2021/09/21 01:18:35;;;;;;;1.80;0.80;;;;;;;20.47;41.18;101025.91;5104952;28;20123;-61
2021/09/21 01:21:08;;;;;;;1.58;1.00;;;;;;;20.39;41.27;101017.44;5106689;28;20044;-61
2021/09/21 01:23:49;;;;;;;2.15;0.80;;;;;;;20.26;41.63;101011.59;5106725;28;20082;-61
2021/09/21 01:26:17;;;;;;;4.15;1.23;;;;;;;20.14;42.00;101019.97;5090293;28;20128;-62
2021/09/21 01:28:44;;;;;;;4.97;1.00;;;;;;;19.99;42.41;101012.78;5119325;28;20078;-61
2021/09/21 01:31:12;;;;;;;1.75;1.00;;;;;;;20.02;42.04;101029.13;5105746;28;20127;-61
2021/09/21 01:33:39;;;;;;;1.60;0.88;;;;;;;19.81;42.33;101014.75;5106380;28;20047;-60
2021/09/21 01:36:06;;;;;;;1.45;0.90;;;;;;;19.87;42.26;101026.78;5100936;28;20526;-60
2021/09/21 01:38:33;;;;;;;2.35;0.90;;;;;;;19.72;42.69;101035.75;5091983;28;20072;-59
2021/09/21 01:41:00;;;;;;;3.22;1.00;;;;;;;19.68;42.85;101038.41;5105977;28;20047;-62
2021/09/21 01:43:27;;;;;;;1.92;0.77;;;;;;;19.62;42.71;101031.19;5103912;28;20439;-64
2021/09/21 01:45:53;;;;;;;4.72;0.98;;;;;;;19.60;43.14;101040.03;5091853;28;20135;-62
2021/09/21 01:48:20;;;;;;;1.13;0.80;;;;;;;19.57;43.07;101039.88;5093070;28;20120;-65
2021/09/21 01:50:56;;;;;;;2.25;1.17;;;;;;;19.51;43.03;101035.50;5098552;28;20078;-63
2021/09/21 01:58:48;;;;;;;2.00;0.90;;;;;;;19.23;43.97;101030.09;5111597;28;20123;-59
2021/09/21 02:01:16;;;;;;;5.45;0.98;;;;;;;19.14;44.04;101020.72;5108244;28;20482;-60
2021/09/21 02:03:43;;;;;;;2.17;1.00;;;;;;;19.08;44.05;101022.06;5097900;28;20051;-64
2021/09/21 02:06:11;;;;;;;1.90;1.10;;;;;;;19.05;44.04;101026.38;5110781;28;20079;-65
2021/09/21 02:08:37;;;;;;;2.03;1.05;;;;;;;19.02;44.67;101031.84;5093118;28;20495;-64
2021/09/21 02:11:04;;;;;;;1.02;0.80;;;;;;;18.99;44.45;101016.34;5097894;28;20074;-68
2021/09/21 02:13:32;;;;;;;2.85;0.77;;;;;;;18.94;44.75;101010.84;5101943;28;20050;-65
2021/09/21 02:15:59;;;;;;;1.95;0.68;;;;;;;18.95;44.52;101012.50;5106870;28;20056;-62
2021/09/21 02:18:26;;;;;;;2.00;1.15;;;;;;;18.97;44.38;101015.81;5095027;28;20131;-61
2021/09/21 02:20:53;;;;;;;2.85;0.70;;;;;;;18.94;44.38;101014.50;5103818;28;20123;-60
2021/09/21 02:23:20;;;;;;;1.13;0.70;;;;;;;19.00;44.01;101006.69;5106392;27;20118;-61
2021/09/21 02:25:47;;;;;;;1.05;0.90;;;;;;;19.08;43.87;101008.72;5110350;28;20126;-60
2021/09/21 02:28:14;;;;;;;1.55;0.77;;;;;;;19.05;44.01;101005.72;5115039;28;20071;-60
2021/09/21 02:30:41;;;;;;;1.63;1.20;;;;;;;19.08;44.38;101022.88;5101302;27;20075;-61
2021/09/21 02:33:09;;;;;;;2.72;0.80;;;;;;;19.06;44.19;101013.03;5115566;28;20126;-62
2021/09/21 02:35:35;;;;;;;0.85;0.68;;;;;;;19.08;44.50;101020.06;5105680;28;20048;-61
2021/09/21 02:38:02;;;;;;;1.70;0.80;;;;;;;18.78;44.02;100976.47;5105513;28;20106;-61
2021/09/21 02:40:30;;;;;;;0.88;0.60;;;;;;;19.04;44.12;101013.38;5096055;28;20039;-61
2021/09/21 02:42:57;;;;;;;1.50;0.80;;;;;;;19.08;44.00;101014.41;5093085;28;20123;-62
2021/09/21 02:45:24;;;;;;;1.38;0.60;;;;;;;19.05;43.53;101011.38;5108651;28;20044;-62
2021/09/21 02:47:51;;;;;;;3.97;1.17;;;;;;;19.05;43.42;101000.91;5094591;28;20083;-61
2021/09/21 02:50:18;;;;;;;0.60;0.45;;;;;;;19.26;43.70;101022.94;5096952;28;20124;-62
2021/09/21 02:52:45;;;;;;;0.73;0.50;;;;;;;19.23;43.12;101012.28;5113333;28;20609;-61
2021/09/21 02:55:12;;;;;;;0.93;0.63;;;;;;;19.35;43.13;101015.28;5110001;28;20082;-62
2021/09/21 02:57:39;;;;;;;3.95;0.60;;;;;;;19.37;43.31;101012.97;5094912;28;20514;-62
2021/09/21 03:00:11;;;;;;;1.88;0.95;;;;;;;19.39;43.00;101013.50;5113936;28;20070;-61
2021/09/21 03:02:39;;;;;;;0.45;0.40;;;;;;;19.35;43.06;100999.16;5102286;28;20062;-67
2021/09/21 03:05:11;;;;;;;0.80;0.45;;;;;;;19.49;42.93;101015.19;5109561;28;20039;-62
2021/09/21 03:07:41;;;;;;;1.42;0.43;;;;;;;19.41;42.79;101002.66;5110963;28;20078;-63
2021/09/21 03:17:51;;;;;;;0.85;0.32;;;;;;;19.54;42.68;101007.34;5104017;28;20534;-60
2021/09/21 03:20:18;;;;;;;0.38;0.38;;;;;;;19.50;42.53;101002.69;5104144;28;20103;-61
2021/09/21 03:22:45;;;;;;;0.88;0.52;;;;;;;19.51;42.55;101002.34;5083022;28;20047;-61
2021/09/21 03:25:12;;;;;;;1.08;0.50;;;;;;;19.46;42.61;101005.34;5094108;28;20046;-60
2021/09/21 03:27:39;;;;;;;2.15;0.50;;;;;;;19.48;42.60;101014.34;5111125;28;20093;-61
2021/09/21 03:30:06;;;;;;;0.68;0.50;;;;;;;19.45;42.56;101002.84;5108752;28;20503;-60
2021/09/21 03:32:33;;;;;;;0.30;0.30;;;;;;;19.40;42.60;101001.00;5094148;28;20491;-60
2021/09/21 03:35:02;;;;;;;1.27;0.30;;;;;;;19.39;42.56;100996.50;5075896;28;20123;-60
2021/09/21 03:37:29;;;;;;;0.43;0.38;;;;;;;19.45;42.71;101009.31;5112100;28;20489;-60
2021/09/21 03:39:56;;;;;;;0.73;0.60;;;;;;;19.37;42.55;101010.16;5108463;27;20127;-60
2021/09/21 03:42:23;;;;;;;1.00;0.60;;;;;;;19.29;42.67;100983.47;5097419;28;20139;-60
2021/09/21 03:44:50;;;;;;;1.45;0.40;;;;;;;19.22;42.73;100968.16;5100477;28;20127;-61
2021/09/21 03:47:17;;;;;;;0.38;0.38;;;;;;;19.44;42.25;101006.84;5108290;28;20044;-60
2021/09/21 03:49:44;;;;;;;1.42;0.70;;;;;;;19.47;42.67;100995.69;5100506;28;20075;-60
2021/09/21 03:52:11;;;;;;;1.05;0.40;;;;;;;19.48;42.41;100993.69;5098749;28;20131;-60
2021/09/21 03:54:38;;;;;;;1.27;0.60;;;;;;;19.49;42.54;100992.53;5093322;28;20131;-62
2021/09/21 03:57:05;;;;;;;1.20;0.40;;;;;;;19.49;42.39;100998.19;5093385;28;20130;-59
2021/09/21 03:59:31;;;;;;;0.75;0.40;;;;;;;19.46;42.09;101002.53;5100837;28;20127;-63
2021/09/21 04:01:58;;;;;;;2.30;0.40;;;;;;;19.48;42.47;101017.16;5098094;28;20091;-63
2021/09/21 04:04:25;;;;;;;1.00;0.63;;;;;;;19.48;42.20;101014.34;5093549;28;20080;-63
2021/09/21 04:06:52;;;;;;;0.60;0.43;;;;;;;19.46;42.21;101022.34;5109593;28;20122;-62
2021/09/21 04:09:19;;;;;;;1.13;0.70;;;;;;;19.44;42.09;101024.66;5111074;28;20078;-59
2021/09/21 04:11:46;;;;;;;0.98;0.52;;;;;;;19.45;42.22;101019.81;5094818;28;20076;-59
2021/09/21 04:14:13;;;;;;;0.60;0.60;;;;;;;19.36;42.22;101000.00;5092826;28;20454;-60
2021/09/21 04:16:39;;;;;;;0.73;0.50;;;;;;;19.46;42.10;101022.34;5105990;27;20112;-63
2021/09/21 04:19:06;;;;;;;1.65;0.63;;;;;;;19.36;42.13;101002.81;5085863;28;20503;-60
2021/09/21 04:21:33;;;;;;;0.32;0.30;;;;;;;19.36;42.30;101012.16;5110517;28;20478;-60
2021/09/21 04:24:00;;;;;;;2.80;0.55;;;;;;;19.32;42.55;101013.97;5112077;28;20126;-61
2021/09/21 04:26:27;;;;;;;0.85;0.70;;;;;;;19.14;42.56;100996.09;5095875;28;20454;-61
2021/09/21 04:28:54;;;;;;;1.85;0.90;;;;;;;19.25;42.65;101018.44;5108913;28;20130;-62
2021/09/21 04:31:23;;;;;;;1.15;0.75;;;;;;;19.09;42.97;100989.75;5107003;28;20448;-64
2021/09/21 04:33:51;;;;;;;0.73;0.60;;;;;;;19.15;42.35;101000.59;5101179;28;20087;-62
2021/09/21 04:36:19;;;;;;;1.88;0.82;;;;;;;19.15;42.39;101000.59;5099837;28;20079;-61
2021/09/21 04:38:47;;;;;;;5.20;0.90;;;;;;;19.27;42.26;101001.97;5092816;28;20511;-61
2021/09/21 04:41:14;;;;;;;1.30;0.88;;;;;;;19.25;42.68;101004.28;5098628;28;20082;-59
2021/09/21 04:43:41;;;;;;;1.73;0.95;;;;;;;19.28;42.64;101006.44;5113974;27;20044;-61
2021/09/21 04:46:10;;;;;;;0.63;0.63;;;;;;;19.28;42.63;100989.47;5124027;27;20082;-60
2021/09/21 04:48:37;;;;;;;1.65;0.90;;;;;;;19.31;42.33;101003.78;5094786;28;20086;-60
2021/09/21 04:51:04;;;;;;;1.35;0.95;;;;;;;19.29;42.58;101002.47;5100439;28;20131;-62
2021/09/21 04:53:31;;;;;;;1.65;0.82;;;;;;;19.21;42.14;100997.59;5107158;28;20462;-62
2021/09/21 04:55:58;;;;;;;2.60;0.65;;;;;;;19.17;42.32;100981.28;5109585;28;20123;-63
2021/09/21 04:58:24;;;;;;;2.95;0.90;;;;;;;19.11;42.34;100971.28;5092205;28;20087;-63
2021/09/21 05:00:52;;;;;;;1.70;0.75;;;;;;;19.24;42.65;100985.63;5098323;28;20069;-62
2021/09/21 05:03:19;;;;;;;1.02;0.68;;;;;;;19.13;42.49;100979.44;5112603;28;20050;-62
2021/09/21 05:05:46;;;;;;;1.60;0.70;;;;;;;19.26;42.43;100988.97;5107695;28;20057;-62
2021/09/21 05:08:12;;;;;;;1.25;1.00;;;;;;;19.25;42.53;100990.13;5112664;28;20131;-61
2021/09/21 05:10:39;;;;;;;1.50;1.08;;;;;;;19.26;42.52;100983.31;5107230;28;20123;-62
2021/09/21 05:13:06;;;;;;;0.90;0.80;;;;;;;18.96;42.13;100940.59;5107281;28;20547;-65
2021/09/21 05:15:33;;;;;;;3.28;1.33;;;;;;;19.27;42.56;100991.47;5094979;28;20048;-64
2021/09/21 05:18:00;;;;;;;1.60;0.80;;;;;;;19.12;42.12;100970.13;5092363;28;20071;-63
2021/09/21 05:20:27;;;;;;;2.30;1.27;;;;;;;18.99;42.50;100967.41;5092941;28;20075;-63
2021/09/21 05:22:54;;;;;;;1.20;0.90;;;;;;;19.00;42.47;100975.56;5104871;28;20090;-60
2021/09/21 05:25:21;;;;;;;1.42;0.93;;;;;;;19.12;42.67;100995.59;5099449;28;20068;-61
2021/09/21 05:27:49;;;;;;;1.70;1.20;;;;;;;19.10;42.51;100999.91;5103634;28;20083;-61
2021/09/21 05:30:16;;;;;;;3.30;1.05;;;;;;;19.03;42.75;101008.03;5092105;28;20130;-62
2021/09/21 05:32:43;;;;;;;1.88;0.80;;;;;;;19.07;42.78;101011.88;5101573;28;20087;-60
2021/09/21 05:35:10;;;;;;;2.22;1.15;;;;;;;19.04;42.70;101016.22;5091517;28;20080;-60
2021/09/21 05:37:37;;;;;;;2.67;1.10;;;;;;;19.05;42.75;101006.56;5100070;28;20135;-65
2021/09/21 05:40:06;;;;;;;1.17;0.82;;;;;;;18.94;42.90;100988.22;5094744;28;20482;-59
2021/09/21 05:42:36;;;;;;;5.85;0.88;;;;;;;19.07;42.99;101009.03;5106940;27;20131;-61
2021/09/21 05:45:08;;;;;;;2.25;1.10;;;;;;;19.09;42.93;100999.06;5100347;28;20044;-60
2021/09/21 05:47:39;;;;;;;2.40;1.10;;;;;;;18.94;43.07;100985.38;5101833;28;20551;-61
2021/09/21 05:50:07;;;;;;;4.28;0.90;;;;;;;18.94;43.27;100997.53;5107658;27;20084;-62
2021/09/21 05:52:34;;;;;;;1.85;1.17;;;;;;;18.88;44.24;101009.31;5105534;28;20077;-61
2021/09/21 05:55:03;;;;;;;2.95;1.20;;;;;;;18.77;43.99;101005.94;5106651;28;20122;-61
2021/09/21 05:57:30;;;;;;;1.60;1.00;;;;;;;18.57;44.21;100995.97;5107152;28;20119;-59
2021/09/21 05:59:57;;;;;;;1.15;0.90;;;;;;;18.56;43.77;101022.56;5113692;28;20079;-60
2021/09/21 06:02:24;;;;;;;1.80;0.80;;;;;;;18.49;44.28;101027.84;5107107;28;20130;-60
2021/09/21 06:04:52;;;;;;;2.25;1.25;;;;;;;18.45;44.56;101021.16;5101512;28;20048;-60
2021/09/21 06:07:19;;;;;;;2.25;1.02;;;;;;;18.49;44.43;101010.88;5100001;28;20040;-59
2021/09/21 06:09:46;;;;;;;1.33;0.90;;;;;;;18.43;44.28;101013.03;5095894;28;20079;-60
2021/09/21 06:12:13;;;;;;;2.78;0.93;;;;;;;18.39;44.77;101016.78;5098814;28;20127;-60
2021/09/21 06:14:39;;;;;;;3.75;0.90;;;;;;;18.24;44.72;101001.06;5100822;28;20074;-59
2021/09/21 06:17:06;;;;;;;2.47;0.88;;;;;;;18.22;44.92;101011.84;5099162;28;20502;-58
2021/09/21 06:19:33;;;;;;;2.13;1.07;;;;;;;18.14;44.83;101004.97;5110581;28;20067;-58
2021/09/21 06:22:00;;;;;;;1.73;1.00;;;;;;;18.21;44.96;101011.00;5103766;28;20126;-59
2021/09/21 06:24:27;;;;;;;2.15;0.95;;;;;;;18.19;44.76;101012.50;5106325;28;20131;-57
2021/09/21 06:26:54;;;;;;;1.60;0.95;;;;;;;18.11;44.88;101005.63;5107396;28;20040;-60
2021/09/21 06:29:21;;;;;;;2.83;1.10;;;;;;;17.90;44.92;100968.53;5094976;28;20616;-60
2021/09/21 06:31:47;;;;;;;2.33;1.30;;;;;;;18.17;44.64;101003.50;5102457;28;20082;-59
2021/09/21 06:34:14;;;;;;;2.95;1.48;;;;;;;18.19;44.97;101004.88;5097998;28;20139;-59
2021/09/21 06:36:41;;;;;;;3.55;1.20;;;;;;;18.00;44.53;100982.44;5108903;28;20070;-59
2021/09/21 06:39:08;;;;;;;2.80;0.90;;;;;;;18.18;44.62;101000.34;5097340;28;20078;-58
2021/09/21 06:41:35;;;;;;;2.13;0.90;;;;;;;18.24;44.42;101013.19;5104952;28;20097;-59
2021/09/21 06:44:02;;;;;;;1.50;1.10;;;;;;;18.29;44.71;101017.91;5096832;28;20078;-58
2021/09/21 06:46:29;;;;;;;2.20;1.20;;;;;;;18.28;44.68;101021.03;5089445;28;20074;-60
2021/09/21 06:48:56;;;;;;;2.70;1.52;;;;;;;18.36;44.60;101034.41;5109384;28;20159;-59
2021/09/21 06:51:22;;;;;;;6.90;1.25;;;;;;;18.43;44.42;101024.34;5095246;28;20123;-61
2021/09/21 06:53:49;;;;;;;2.85;1.15;;;;;;;18.51;44.59;101024.72;5104665;28;20040;-59
2021/09/21 06:56:16;;;;;;;3.30;1.25;;;;;;;18.68;44.41;101021.97;5094888;28;20066;-59
2021/09/21 06:58:43;;;;;;;2.40;1.35;;;;;;;18.62;44.12;100998.66;5104056;28;20122;-60
2021/09/21 07:01:10;;;;;;;3.20;1.20;;;;;;;18.81;43.94;101023.09;5104154;28;20162;-60
2021/09/21 07:03:37;;;;;;;1.65;1.10;;;;;;;18.96;44.26;101025.47;5103586;28;20040;-60
2021/09/21 07:06:04;;;;;;;1.65;1.13;;;;;;;19.10;44.05;101028.22;5098866;28;20050;-60
2021/09/21 07:08:31;;;;;;;2.60;1.63;;;;;;;19.21;44.08;101028.75;5097357;28;20051;-60
2021/09/21 07:10:58;;;;;;;5.55;1.40;;;;;;;19.32;43.62;101035.81;5099041;28;20071;-60
2021/09/21 07:13:25;;;;;;;2.20;0.98;;;;;;;19.41;43.52;101036.66;5108108;27;20138;-60
2021/09/21 07:15:52;;;;;;;1.50;1.02;;;;;;;19.51;43.76;101035.50;5108671;27;20506;-60
2021/09/21 07:18:19;;;;;;;1.95;1.13;;;;;;;19.62;43.61;101043.38;5108146;27;20044;-60
2021/09/21 07:20:46;;;;;;;2.10;1.33;;;;;;;19.74;43.46;101037.09;5096827;28;20048;-60
2021/09/21 07:23:13;;;;;;;2.88;1.27;;;;;;;20.04;43.01;101045.81;5095195;28;20606;-59
2021/09/21 07:25:40;;;;;;;2.30;1.30;;;;;;;20.30;42.82;101057.13;5094309;28;20078;-60
2021/09/21 07:28:06;;;;;;;3.25;1.10;;;;;;;20.22;42.96;100996.44;5100689;28;20115;-60
2021/09/21 07:30:34;;;;;;;2.92;1.35;;;;;;;20.77;41.94;101043.91;5094982;28;20071;-60
2021/09/21 07:33:02;;;;;;;1.70;1.08;;;;;;;21.13;41.61;101048.34;5093634;28;20040;-60
2021/09/21 07:35:28;;;;;;;2.50;1.10;;;;;;;21.47;41.01;101063.56;5105318;28;20044;-60
2021/09/21 07:37:56;;;;;;;2.72;1.40;;;;;;;21.50;40.49;101015.44;5096228;28;20480;-60
2021/09/21 07:40:23;;;;;;;1.65;1.08;;;;;;;21.99;39.79;101026.28;5099414;28;20036;-60
2021/09/21 07:42:50;;;;;;;2.03;1.10;;;;;;;22.51;39.69;101048.63;5106624;28;20138;-60
2021/09/21 07:45:17;;;;;;;2.40;1.23;;;;;;;22.88;38.73;101063.00;5106824;28;20119;-60
2021/09/21 07:47:44;;;;;;;3.20;1.25;;;;;;;23.15;38.47;101050.97;5102730;28;20123;-60
2021/09/21 07:50:11;;;;;;;2.92;1.42;;;;;;;23.61;37.98;101076.50;5106691;28;20130;-59
2021/09/21 07:52:38;;;;;;;2.60;1.30;;;;;;;23.77;37.46;101053.84;5096647;28;20511;-60
2021/09/21 07:55:05;;;;;;;2.63;1.30;;;;;;;24.12;37.18;101059.84;5094679;28;20132;-59
2021/09/21 07:57:36;;;;;;;2.47;1.35;;;;;;;24.41;36.42;101072.16;5105241;28;20047;-59
2021/09/21 08:00:05;;;;;;;4.88;1.35;;;;;;;24.74;36.01;101060.47;5098902;28;20050;-59
2021/09/21 08:02:32;;;;;;;4.20;1.50;;;;;;;24.90;35.60;101049.09;5100797;28;20079;-59
2021/09/21 08:04:59;;;;;;;2.85;1.52;;;;;;;25.39;35.24;101074.50;5099419;27;20044;-59
2021/09/21 08:07:29;;;;;;;4.10;1.90;;;;;;;25.72;35.03;101069.22;5091033;28;20048;-60
2021/09/21 08:09:58;;;;;;;2.53;1.30;;;;;;;26.25;34.05;101063.09;5106203;28;20083;-59
2021/09/21 08:12:27;;;;;;;3.15;1.48;;;;;;;26.57;33.51;101063.84;5099920;28;20090;-61
2021/09/21 08:14:54;;;;;;;1.65;1.00;;;;;;;26.78;33.01;101069.16;5093311;28;20543;-61
2021/09/21 08:17:22;;;;;;;3.80;1.58;;;;;;;27.07;32.55;101069.72;5111036;28;20124;-61
2021/09/21 08:19:49;;;;;;;3.17;1.35;;;;;;;27.32;31.82;101070.22;5093692;28;20089;-60
2021/09/21 08:22:20;;;;;;;0.95;0.73;;;;;;;27.41;31.66;101070.75;5099034;28;20039;-60
2021/09/21 08:24:47;;;;;;;2.55;0.90;;;;;;;27.28;31.19;101069.28;5106156;27;20118;-65
2021/09/21 08:27:15;;;;;;;0.70;0.70;;;;;;;27.08;30.91;101071.38;5094192;27;20147;-65
2021/09/21 08:29:42;;;;;;;2.33;1.13;;;;;;;27.24;30.98;101079.88;5086988;28;20075;-65
2021/09/21 08:32:08;;;;;;;1.73;0.65;;;;;;;27.48;30.30;101079.50;5103554;28;20124;-64
2021/09/21 08:34:35;;;;;;;1.05;0.95;;;;;;;27.56;30.11;101074.72;5095273;28;20106;-65
2021/09/21 08:37:02;;;;;;;2.42;0.80;;;;;;;27.83;30.19;101073.56;5106659;28;20126;-66
2021/09/21 08:39:29;;;;;;;5.00;0.90;;;;;;;27.91;29.78;101059.31;5107960;28;20079;-64
2021/09/21 08:41:57;;;;;;;1.10;0.77;;;;;;;28.12;29.46;101059.63;5105958;28;20055;-64
2021/09/21 08:44:25;;;;;;;0.82;0.70;;;;;;;28.17;29.16;101064.19;5103539;28;20043;-66
2021/09/21 08:46:52;;;;;;;2.03;1.00;;;;;;;28.00;29.00;101071.31;5109612;28;20122;-65
2021/09/21 08:49:19;;;;;;;1.13;0.93;;;;;;;28.29;28.80;101073.41;5093369;28;20107;-65
2021/09/21 08:51:46;;;;;;;2.95;1.00;;;;;;;28.60;28.99;101071.38;5102336;28;20591;-64
2021/09/21 08:54:13;;;;;;;0.93;0.80;;;;;;;28.62;29.09;101068.94;5079648;28;20127;-65
2021/09/21 08:56:40;;;;;;;4.15;1.05;;;;;;;28.13;28.51;101081.38;5098970;28;20073;-64
2021/09/21 08:59:15;;;;;;;1.55;0.95;;;;;;;27.61;28.63;101055.13;5100114;28;20040;-65
2021/09/21 09:01:48;;;;;;;1.73;0.80;;;;;;;27.77;28.88;101057.06;5110437;28;20047;-63
2021/09/21 09:04:17;;;;;;;1.50;0.80;;;;;;;28.33;28.46;101057.03;5102091;28;20044;-63
2021/09/21 09:06:54;;;;;;;1.83;0.98;;;;;;;28.85;28.33;101054.41;5101957;27;20048;-64
2021/09/21 09:09:22;;;;;;;2.05;1.48;;;;;;;28.22;28.01;101035.97;5096369;28;20562;-64
2021/09/21 09:11:53;;;;;;;2.58;1.48;;;;;;;28.53;28.40;101063.47;5104810;28;20575;-63
2021/09/21 09:14:29;;;;;;;2.45;1.35;;;;;;;28.93;28.07;101053.28;5128972;27;20057;-64
2021/09/21 09:16:58;;;;;;;1.63;1.13;;;;;;;29.10;27.66;101059.66;5118796;27;20083;-64
2021/09/21 09:19:40;;;;;;;2.22;0.90;;;;;;;29.25;27.47;101050.75;5109382;27;20479;-64
2021/09/21 09:22:20;;;;;;;2.42;0.90;;;;;;;29.60;26.86;101042.84;5103430;28;20574;-63
2021/09/21 09:24:51;;;;;;;3.30;0.98;;;;;;;29.88;26.64;101047.97;5111662;28;20469;-65
2021/09/21 09:27:19;;;;;;;3.75;1.00;;;;;;;30.26;26.64;101052.38;5105934;28;20044;-64
2021/09/21 09:29:58;;;;;;;1.13;0.90;;;;;;;30.37;26.61;101047.47;5092354;28;20098;-65
2021/09/21 09:32:25;;;;;;;0.90;0.80;;;;;;;30.42;26.06;101073.00;5101499;28;20075;-63
2021/09/21 09:34:52;;;;;;;1.45;1.10;;;;;;;30.65;25.58;101048.81;5105924;27;20126;-63
2021/09/21 09:37:19;;;;;;;1.02;0.70;;;;;;;30.73;25.72;101082.19;5079985;28;20491;-64
2021/09/21 09:39:47;;;;;;;2.00;0.80;;;;;;;30.73;25.51;101076.44;5104656;28;20071;-63
2021/09/21 09:42:14;;;;;;;1.67;0.98;;;;;;;30.91;24.92;101080.25;5115830;28;20083;-63
2021/09/21 09:44:43;;;;;;;1.52;0.73;;;;;;;30.85;25.07;101086.81;5099654;28;20086;-64
2021/09/21 09:47:10;;;;;;;1.73;0.75;;;;;;;31.01;25.13;101074.88;5106693;28;20048;-63
2021/09/21 09:49:39;;;;;;;2.95;0.90;;;;;;;31.30;24.61;101081.56;5104825;28;20071;-64
2021/09/21 09:52:15;;;;;;;;;;;;;;;30.88;25.98;101077.34;5111865;28;20051;-64
2021/09/21 09:54:45;;;;;;;1.23;0.90;;;;;;;31.28;24.80;101076.22;5096866;28;19920;-63
2021/09/21 09:57:14;;;;;;;2.03;0.68;;;;;;;31.31;25.02;101081.13;5103139;28;20127;-64
2021/09/21 09:59:41;;;;;;;1.17;0.90;;;;;;;31.64;24.33;101084.91;5097900;27;20109;-63
2021/09/21 10:02:09;;;;;;;1.02;0.93;;;;;;;31.97;24.14;101063.44;5108351;28;20479;-64
2021/09/21 10:04:39;;;;;;;3.17;0.98;;;;;;;32.39;23.58;101067.44;5110308;28;20440;-64
2021/09/21 10:07:06;;;;;;;0.95;0.93;;;;;;;32.49;23.53;101074.47;5102392;28;20048;-63
2021/09/21 10:09:34;;;;;;;1.63;0.90;;;;;;;32.02;23.15;101067.97;5099116;28;20090;-64
2021/09/21 10:12:01;;;;;;;3.08;0.90;;;;;;;31.38;23.47;101071.69;5102472;27;20122;-64
2021/09/21 10:14:28;;;;;;;0.95;0.90;;;;;;;31.24;23.23;101046.50;5102576;28;20082;-63
2021/09/21 10:17:05;;;;;;;2.55;0.93;;;;;;;31.61;23.51;101074.16;5107559;27;20105;-64
2021/09/21 10:19:35;;;;;;;0.73;0.60;;;;;;;31.61;22.87;101059.75;5105162;28;20560;-63
2021/09/21 10:22:03;;;;;;;0.85;0.63;;;;;;;31.41;23.50;101070.03;5098037;28;20039;-63
2021/09/21 10:24:42;;;;;;;0.87;0.60;;;;;;;31.63;23.59;101080.38;5098727;28;20048;-64
2021/09/21 10:27:12;;;;;;;;;;;;;;;31.53;23.88;101066.75;5102655;28;20137;-68
2021/09/21 10:29:39;;;;;;;2.83;1.02;;;;;;;32.09;23.07;101062.16;5116476;27;19946;-68
2021/09/21 10:32:15;;;;;;;3.50;0.90;;;;;;;32.30;22.26;101058.38;5105259;27;20106;-69
2021/09/21 10:34:45;;;;;;;3.25;0.95;;;;;;;32.44;22.03;101054.66;5108304;27;20056;-68
2021/09/21 10:37:15;;;;;;;1.15;0.88;;;;;;;32.08;22.33;101052.69;5106360;28;20039;-69
2021/09/21 10:39:42;;;;;;;0.85;0.85;;;;;;;32.00;22.29;101036.63;5101264;27;20951;-63
2021/09/21 10:42:12;;;;;;;3.42;1.27;;;;;;;32.16;21.24;101041.09;5104646;28;20075;-68
2021/09/21 10:44:53;;;;;;;1.27;0.80;;;;;;;32.35;21.34;101022.47;5102196;28;20052;-67
2021/09/21 10:47:23;;;;;;;1.13;0.82;;;;;;;32.87;21.54;101040.00;5110339;28;20122;-68
2021/09/21 10:49:54;;;;;;;0.75;0.70;;;;;;;32.94;21.04;101022.59;5104275;28;20044;-68
2021/09/21 10:52:27;;;;;;;2.08;1.13;;;;;;;33.02;21.42;101024.22;5101451;27;20048;-69
2021/09/21 10:54:57;;;;;;;0.88;0.80;;;;;;;33.02;21.04;101024.22;5099027;28;20075;-68
2021/09/21 10:57:28;;;;;;;2.15;0.98;;;;;;;33.24;20.82;101024.88;5104000;28;20122;-68
2021/09/21 10:59:58;;;;;;;0.90;0.80;;;;;;;33.34;20.61;101017.38;5105418;28;20093;-69
2021/09/21 11:02:29;;;;;;;4.97;0.70;;;;;;;32.86;20.15;101021.00;5112706;28;20456;-67
2021/09/21 11:04:59;;;;;;;1.42;0.85;;;;;;;32.50;20.66;101003.84;5108372;28;20055;-64
2021/09/21 11:07:26;;;;;;;0.98;0.70;;;;;;;32.85;20.64;101010.66;5107722;28;20127;-65
2021/09/21 11:09:55;;;;;;;0.70;0.70;;;;;;;33.29;20.40;100997.56;5107850;27;20074;-65
2021/09/21 11:12:24;;;;;;;;;;;;;;;32.95;21.12;101001.09;5102391;28;20046;-65
2021/09/21 11:14:56;;;;;;;1.60;0.82;;;;;;;33.66;20.42;100982.34;5098724;28;19924;-65
2021/09/21 11:17:25;;;;;;;2.00;0.85;;;;;;;34.29;20.01;100997.38;5112176;27;20093;-65
2021/09/21 11:19:55;;;;;;;1.23;0.93;;;;;;;34.55;19.32;100990.00;5105479;28;20468;-65
2021/09/21 11:22:29;;;;;;;1.50;0.80;;;;;;;34.46;19.06;100988.88;5104397;27;20043;-64
2021/09/21 11:25:08;;;;;;;2.20;0.82;;;;;;;35.17;18.92;100981.22;5110528;27;20079;-65
2021/09/21 11:27:37;;;;;;;1.17;0.70;;;;;;;35.83;18.15;100983.34;5103357;27;20048;-65
2021/09/21 11:30:08;;;;;;;2.00;0.80;;;;;;;36.15;17.57;100976.94;5103021;27;20063;-66
2021/09/21 11:32:37;;;;;;;2.45;0.85;;;;;;;35.69;17.67;100983.63;5115318;27;20048;-65
2021/09/21 11:35:13;;;;;;;0.73;0.70;;;;;;;35.90;17.80;100983.25;5110031;28;20065;-65
2021/09/21 11:37:42;;;;;;;1.45;0.85;;;;;;;35.96;17.21;100951.56;5100928;28;20082;-66
2021/09/21 11:40:09;;;;;;;;;;;;;;;36.16;17.67;100966.13;5106713;28;20457;-70
2021/09/21 11:42:37;;;;;;;0.95;0.80;;;;;;;36.58;16.69;100969.38;5111866;28;19924;-67
2021/09/21 11:45:07;;;;;;;1.17;0.82;;;;;;;37.02;16.27;100952.56;5102914;28;20126;-66